sensor_id;sensor_type;location;lat;lon;timestamp;temperature;humidity
45537;DHT22;31262;51.978;5.924;2022-10-16T00:00:17;16.00;77.60
45537;DHT22;31262;51.978;5.924;2022-10-16T00:02:42;15.90;77.50
45537;DHT22;31262;51.978;5.924;2022-10-16T00:05:08;15.80;77.60
45537;DHT22;31262;51.978;5.924;2022-10-16T00:07:33;15.80;77.70
45537;DHT22;31262;51.978;5.924;2022-10-16T00:09:59;15.80;77.70
45537;DHT22;31262;51.978;5.924;2022-10-16T00:12:24;15.70;77.70
45537;DHT22;31262;51.978;5.924;2022-10-16T00:14:50;15.70;77.50
45537;DHT22;31262;51.978;5.924;2022-10-16T00:17:15;15.60;77.50
45537;DHT22;31262;51.978;5.924;2022-10-16T00:19:41;15.60;77.50
45537;DHT22;31262;51.978;5.924;2022-10-16T00:22:06;15.50;77.60
45537;DHT22;31262;51.978;5.924;2022-10-16T00:24:31;15.50;77.80
45537;DHT22;31262;51.978;5.924;2022-10-16T00:26:57;15.50;77.80
45537;DHT22;31262;51.978;5.924;2022-10-16T00:29:22;15.40;78.00
45537;DHT22;31262;51.978;5.924;2022-10-16T00:31:48;15.40;78.10
45537;DHT22;31262;51.978;5.924;2022-10-16T00:34:13;15.40;78.20
45537;DHT22;31262;51.978;5.924;2022-10-16T00:36:39;15.30;78.20
45537;DHT22;31262;51.978;5.924;2022-10-16T00:39:05;15.40;78.40
45537;DHT22;31262;51.978;5.924;2022-10-16T00:41:31;15.30;79.00
45537;DHT22;31262;51.978;5.924;2022-10-16T00:43:57;15.30;78.40
45537;DHT22;31262;51.978;5.924;2022-10-16T00:46:37;15.30;78.60
45537;DHT22;31262;51.978;5.924;2022-10-16T00:49:16;15.30;78.60
45537;DHT22;31262;51.978;5.924;2022-10-16T00:51:43;15.30;78.60
45537;DHT22;31262;51.978;5.924;2022-10-16T00:54:13;15.40;78.80
45537;DHT22;31262;51.978;5.924;2022-10-16T00:56:40;15.10;78.70
45537;DHT22;31262;51.978;5.924;2022-10-16T00:59:07;15.30;78.90
45537;DHT22;31262;51.978;5.924;2022-10-16T01:01:34;15.30;79.00
45537;DHT22;31262;51.978;5.924;2022-10-16T01:04:00;15.20;79.00
45537;DHT22;31262;51.978;5.924;2022-10-16T01:13:46;15.10;79.30
45537;DHT22;31262;51.978;5.924;2022-10-16T01:16:13;15.10;79.50
45537;DHT22;31262;51.978;5.924;2022-10-16T01:18:45;15.10;79.60
45537;DHT22;31262;51.978;5.924;2022-10-16T01:29:40;15.10;79.90
45537;DHT22;31262;51.978;5.924;2022-10-16T01:32:10;15.20;79.90
45537;DHT22;31262;51.978;5.924;2022-10-16T01:34:38;15.10;79.80
45537;DHT22;31262;51.978;5.924;2022-10-16T01:37:14;15.10;79.80
45537;DHT22;31262;51.978;5.924;2022-10-16T01:39:41;15.10;79.90
45537;DHT22;31262;51.978;5.924;2022-10-16T01:42:18;15.10;80.00
45537;DHT22;31262;51.978;5.924;2022-10-16T01:44:45;15.20;80.00
45537;DHT22;31262;51.978;5.924;2022-10-16T01:47:11;15.10;80.00
45537;DHT22;31262;51.978;5.924;2022-10-16T01:49:38;15.10;80.10
45537;DHT22;31262;51.978;5.924;2022-10-16T01:52:05;15.10;80.30
45537;DHT22;31262;51.978;5.924;2022-10-16T01:54:31;15.10;80.50
45537;DHT22;31262;51.978;5.924;2022-10-16T01:56:58;15.10;80.60
45537;DHT22;31262;51.978;5.924;2022-10-16T01:59:25;15.10;80.60
45537;DHT22;31262;51.978;5.924;2022-10-16T02:01:54;15.10;80.70
45537;DHT22;31262;51.978;5.924;2022-10-16T02:04:38;15.10;80.70
45537;DHT22;31262;51.978;5.924;2022-10-16T02:07:04;15.20;80.80
45537;DHT22;31262;51.978;5.924;2022-10-16T02:09:30;15.10;80.80
45537;DHT22;31262;51.978;5.924;2022-10-16T02:11:58;15.00;80.80
45537;DHT22;31262;51.978;5.924;2022-10-16T02:14:24;15.00;81.00
45537;DHT22;31262;51.978;5.924;2022-10-16T02:16:50;15.00;81.10
45537;DHT22;31262;51.978;5.924;2022-10-16T02:19:16;14.90;81.10
45537;DHT22;31262;51.978;5.924;2022-10-16T02:21:44;15.00;81.20
45537;DHT22;31262;51.978;5.924;2022-10-16T02:24:33;15.00;81.30
45537;DHT22;31262;51.978;5.924;2022-10-16T02:26:57;15.00;81.40
45537;DHT22;31262;51.978;5.924;2022-10-16T02:29:26;15.00;81.50
45537;DHT22;31262;51.978;5.924;2022-10-16T02:31:54;15.00;81.50
45537;DHT22;31262;51.978;5.924;2022-10-16T02:34:21;15.00;81.50
45537;DHT22;31262;51.978;5.924;2022-10-16T02:36:49;15.00;81.50
45537;DHT22;31262;51.978;5.924;2022-10-16T02:39:15;15.00;81.50
45537;DHT22;31262;51.978;5.924;2022-10-16T02:41:42;15.10;81.50
45537;DHT22;31262;51.978;5.924;2022-10-16T02:44:07;15.10;81.40
45537;DHT22;31262;51.978;5.924;2022-10-16T02:46:33;15.10;81.50
45537;DHT22;31262;51.978;5.924;2022-10-16T02:48:58;15.10;81.50
45537;DHT22;31262;51.978;5.924;2022-10-16T02:51:24;15.20;81.40
45537;DHT22;31262;51.978;5.924;2022-10-16T02:53:49;15.10;81.20
45537;DHT22;31262;51.978;5.924;2022-10-16T02:56:15;15.10;81.30
45537;DHT22;31262;51.978;5.924;2022-10-16T02:58:40;15.10;81.40
45537;DHT22;31262;51.978;5.924;2022-10-16T03:01:06;15.10;81.20
45537;DHT22;31262;51.978;5.924;2022-10-16T03:03:31;15.10;81.20
45537;DHT22;31262;51.978;5.924;2022-10-16T03:05:57;15.10;81.20
45537;DHT22;31262;51.978;5.924;2022-10-16T03:08:22;15.10;81.30
45537;DHT22;31262;51.978;5.924;2022-10-16T03:10:50;15.10;81.30
45537;DHT22;31262;51.978;5.924;2022-10-16T03:13:16;15.20;81.30
45537;DHT22;31262;51.978;5.924;2022-10-16T03:15:41;15.20;81.10
45537;DHT22;31262;51.978;5.924;2022-10-16T03:18:07;15.30;81.00
45537;DHT22;31262;51.978;5.924;2022-10-16T03:20:32;15.30;81.00
45537;DHT22;31262;51.978;5.924;2022-10-16T03:22:58;15.30;81.00
45537;DHT22;31262;51.978;5.924;2022-10-16T03:25:23;15.20;81.00
45537;DHT22;31262;51.978;5.924;2022-10-16T03:27:49;15.20;80.90
45537;DHT22;31262;51.978;5.924;2022-10-16T03:30:14;15.20;80.90
45537;DHT22;31262;51.978;5.924;2022-10-16T03:32:40;15.10;81.10
45537;DHT22;31262;51.978;5.924;2022-10-16T03:35:06;15.10;81.20
45537;DHT22;31262;51.978;5.924;2022-10-16T03:37:31;15.10;81.20
45537;DHT22;31262;51.978;5.924;2022-10-16T03:39:57;15.10;81.30
45537;DHT22;31262;51.978;5.924;2022-10-16T03:42:22;15.10;81.20
45537;DHT22;31262;51.978;5.924;2022-10-16T03:44:48;15.10;81.30
45537;DHT22;31262;51.978;5.924;2022-10-16T03:47:13;15.10;81.30
45537;DHT22;31262;51.978;5.924;2022-10-16T03:49:39;15.10;81.40
45537;DHT22;31262;51.978;5.924;2022-10-16T03:52:04;15.00;81.40
45537;DHT22;31262;51.978;5.924;2022-10-16T03:54:30;15.10;81.50
45537;DHT22;31262;51.978;5.924;2022-10-16T03:56:55;15.10;81.40
45537;DHT22;31262;51.978;5.924;2022-10-16T03:59:20;15.10;81.40
45537;DHT22;31262;51.978;5.924;2022-10-16T04:01:46;15.00;81.40
45537;DHT22;31262;51.978;5.924;2022-10-16T04:04:11;15.00;81.50
45537;DHT22;31262;51.978;5.924;2022-10-16T04:06:37;15.00;81.50
45537;DHT22;31262;51.978;5.924;2022-10-16T04:09:02;15.00;81.60
45537;DHT22;31262;51.978;5.924;2022-10-16T04:11:28;15.00;81.60
45537;DHT22;31262;51.978;5.924;2022-10-16T04:13:53;15.00;81.60
45537;DHT22;31262;51.978;5.924;2022-10-16T04:16:19;15.00;81.60
45537;DHT22;31262;51.978;5.924;2022-10-16T04:18:44;15.00;81.60
45537;DHT22;31262;51.978;5.924;2022-10-16T04:21:10;15.00;81.60
45537;DHT22;31262;51.978;5.924;2022-10-16T04:23:35;15.00;81.60
45537;DHT22;31262;51.978;5.924;2022-10-16T04:26:01;15.10;81.60
45537;DHT22;31262;51.978;5.924;2022-10-16T04:28:27;15.00;81.40
45537;DHT22;31262;51.978;5.924;2022-10-16T04:30:52;15.10;81.50
45537;DHT22;31262;51.978;5.924;2022-10-16T04:33:18;15.20;81.50
45537;DHT22;31262;51.978;5.924;2022-10-16T04:35:43;15.20;81.40
45537;DHT22;31262;51.978;5.924;2022-10-16T04:38:09;15.20;81.30
45537;DHT22;31262;51.978;5.924;2022-10-16T04:40:34;15.20;81.30
45537;DHT22;31262;51.978;5.924;2022-10-16T04:43:04;15.20;81.20
45537;DHT22;31262;51.978;5.924;2022-10-16T04:45:30;15.20;81.20
45537;DHT22;31262;51.978;5.924;2022-10-16T04:47:59;15.20;81.20
45537;DHT22;31262;51.978;5.924;2022-10-16T04:50:25;15.20;81.20
45537;DHT22;31262;51.978;5.924;2022-10-16T04:52:50;15.20;81.20
45537;DHT22;31262;51.978;5.924;2022-10-16T04:55:15;15.20;81.20
45537;DHT22;31262;51.978;5.924;2022-10-16T04:57:41;15.10;81.20
45537;DHT22;31262;51.978;5.924;2022-10-16T05:00:07;15.00;81.40
45537;DHT22;31262;51.978;5.924;2022-10-16T05:02:33;15.00;81.60
45537;DHT22;31262;51.978;5.924;2022-10-16T05:04:58;15.00;81.70
45537;DHT22;31262;51.978;5.924;2022-10-16T05:07:24;15.00;81.70
45537;DHT22;31262;51.978;5.924;2022-10-16T05:09:50;15.00;81.70
45537;DHT22;31262;51.978;5.924;2022-10-16T05:12:15;15.00;81.70
45537;DHT22;31262;51.978;5.924;2022-10-16T05:14:41;15.10;81.60
45537;DHT22;31262;51.978;5.924;2022-10-16T05:17:06;15.10;81.60
45537;DHT22;31262;51.978;5.924;2022-10-16T05:19:32;15.00;81.50
45537;DHT22;31262;51.978;5.924;2022-10-16T05:21:57;15.00;81.50
45537;DHT22;31262;51.978;5.924;2022-10-16T05:24:23;15.00;81.60
45537;DHT22;31262;51.978;5.924;2022-10-16T05:26:49;15.00;81.70
45537;DHT22;31262;51.978;5.924;2022-10-16T05:29:14;15.00;81.70
45537;DHT22;31262;51.978;5.924;2022-10-16T05:31:40;14.90;81.80
45537;DHT22;31262;51.978;5.924;2022-10-16T05:34:05;14.90;81.80
45537;DHT22;31262;51.978;5.924;2022-10-16T05:36:31;14.90;81.80
45537;DHT22;31262;51.978;5.924;2022-10-16T05:38:56;15.00;81.80
45537;DHT22;31262;51.978;5.924;2022-10-16T05:41:22;15.00;81.60
45537;DHT22;31262;51.978;5.924;2022-10-16T05:43:50;15.00;81.60
45537;DHT22;31262;51.978;5.924;2022-10-16T05:46:16;14.90;81.60
45537;DHT22;31262;51.978;5.924;2022-10-16T05:48:41;14.90;81.60
45537;DHT22;31262;51.978;5.924;2022-10-16T05:51:07;14.90;81.60
45537;DHT22;31262;51.978;5.924;2022-10-16T05:53:34;14.90;81.60
45537;DHT22;31262;51.978;5.924;2022-10-16T05:56:00;14.90;81.80
45537;DHT22;31262;51.978;5.924;2022-10-16T05:58:30;14.80;81.80
45537;DHT22;31262;51.978;5.924;2022-10-16T06:00:57;14.80;81.90
45537;DHT22;31262;51.978;5.924;2022-10-16T06:03:23;14.80;81.90
45537;DHT22;31262;51.978;5.924;2022-10-16T06:05:49;14.70;81.90
45537;DHT22;31262;51.978;5.924;2022-10-16T06:08:14;14.70;82.00
45537;DHT22;31262;51.978;5.924;2022-10-16T06:10:40;14.70;82.20
45537;DHT22;31262;51.978;5.924;2022-10-16T06:13:05;14.60;82.20
45537;DHT22;31262;51.978;5.924;2022-10-16T06:15:31;14.60;82.30
45537;DHT22;31262;51.978;5.924;2022-10-16T06:17:56;14.60;82.40
45537;DHT22;31262;51.978;5.924;2022-10-16T06:20:22;14.60;82.40
45537;DHT22;31262;51.978;5.924;2022-10-16T06:22:47;14.60;82.50
45537;DHT22;31262;51.978;5.924;2022-10-16T06:25:13;14.60;82.50
45537;DHT22;31262;51.978;5.924;2022-10-16T06:27:41;14.60;82.60
45537;DHT22;31262;51.978;5.924;2022-10-16T06:30:07;14.60;82.60
45537;DHT22;31262;51.978;5.924;2022-10-16T06:32:32;14.60;82.60
45537;DHT22;31262;51.978;5.924;2022-10-16T06:34:58;14.60;82.60
45537;DHT22;31262;51.978;5.924;2022-10-16T06:37:23;14.70;82.70
45537;DHT22;31262;51.978;5.924;2022-10-16T06:39:50;14.70;82.60
45537;DHT22;31262;51.978;5.924;2022-10-16T06:42:17;14.70;82.60
45537;DHT22;31262;51.978;5.924;2022-10-16T06:44:43;14.70;82.70
45537;DHT22;31262;51.978;5.924;2022-10-16T06:47:08;14.70;82.70
45537;DHT22;31262;51.978;5.924;2022-10-16T06:49:34;14.70;82.80
45537;DHT22;31262;51.978;5.924;2022-10-16T06:52:00;14.80;82.90
45537;DHT22;31262;51.978;5.924;2022-10-16T06:54:26;14.80;82.90
45537;DHT22;31262;51.978;5.924;2022-10-16T06:56:52;14.80;82.90
45537;DHT22;31262;51.978;5.924;2022-10-16T06:59:20;14.90;82.90
45537;DHT22;31262;51.978;5.924;2022-10-16T07:01:45;14.90;83.00
45537;DHT22;31262;51.978;5.924;2022-10-16T07:04:11;14.90;82.90
45537;DHT22;31262;51.978;5.924;2022-10-16T07:06:40;14.90;82.90
45537;DHT22;31262;51.978;5.924;2022-10-16T07:09:06;14.90;83.00
45537;DHT22;31262;51.978;5.924;2022-10-16T07:11:32;14.90;83.10
45537;DHT22;31262;51.978;5.924;2022-10-16T07:13:58;14.90;83.10
45537;DHT22;31262;51.978;5.924;2022-10-16T07:16:25;15.00;83.20
45537;DHT22;31262;51.978;5.924;2022-10-16T07:18:51;15.00;83.20
45537;DHT22;31262;51.978;5.924;2022-10-16T07:21:18;15.00;83.30
45537;DHT22;31262;51.978;5.924;2022-10-16T07:23:49;15.00;83.30
45537;DHT22;31262;51.978;5.924;2022-10-16T07:26:14;15.10;83.40
45537;DHT22;31262;51.978;5.924;2022-10-16T07:28:40;15.10;83.30
45537;DHT22;31262;51.978;5.924;2022-10-16T07:31:09;15.10;83.20
45537;DHT22;31262;51.978;5.924;2022-10-16T07:33:36;15.10;83.20
45537;DHT22;31262;51.978;5.924;2022-10-16T07:36:01;15.10;83.30
45537;DHT22;31262;51.978;5.924;2022-10-16T07:38:27;15.10;83.30
45537;DHT22;31262;51.978;5.924;2022-10-16T07:40:59;15.20;83.40
45537;DHT22;31262;51.978;5.924;2022-10-16T07:43:25;15.20;83.30
45537;DHT22;31262;51.978;5.924;2022-10-16T07:45:51;15.30;83.20
45537;DHT22;31262;51.978;5.924;2022-10-16T07:48:17;15.30;83.20
45537;DHT22;31262;51.978;5.924;2022-10-16T07:50:43;15.30;83.20
45537;DHT22;31262;51.978;5.924;2022-10-16T07:53:09;15.40;83.20
45537;DHT22;31262;51.978;5.924;2022-10-16T07:55:35;15.40;82.80
45537;DHT22;31262;51.978;5.924;2022-10-16T07:58:00;15.40;83.00
45537;DHT22;31262;51.978;5.924;2022-10-16T08:00:26;15.40;82.90
45537;DHT22;31262;51.978;5.924;2022-10-16T08:02:51;15.50;83.00
45537;DHT22;31262;51.978;5.924;2022-10-16T08:05:17;15.50;82.90
45537;DHT22;31262;51.978;5.924;2022-10-16T08:07:42;15.60;83.00
45537;DHT22;31262;51.978;5.924;2022-10-16T08:10:14;15.60;82.90
45537;DHT22;31262;51.978;5.924;2022-10-16T08:12:41;15.60;82.70
45537;DHT22;31262;51.978;5.924;2022-10-16T08:15:06;15.70;82.80
45537;DHT22;31262;51.978;5.924;2022-10-16T08:17:32;15.70;82.40
45537;DHT22;31262;51.978;5.924;2022-10-16T08:19:57;15.80;82.20
45537;DHT22;31262;51.978;5.924;2022-10-16T08:22:23;15.80;82.20
45537;DHT22;31262;51.978;5.924;2022-10-16T08:24:48;15.80;82.00
45537;DHT22;31262;51.978;5.924;2022-10-16T08:27:14;15.80;81.90
45537;DHT22;31262;51.978;5.924;2022-10-16T08:29:39;15.90;81.80
45537;DHT22;31262;51.978;5.924;2022-10-16T08:32:05;15.90;81.70
45537;DHT22;31262;51.978;5.924;2022-10-16T08:34:31;16.00;81.80
45537;DHT22;31262;51.978;5.924;2022-10-16T08:36:56;16.00;81.80
45537;DHT22;31262;51.978;5.924;2022-10-16T08:39:22;16.10;81.60
45537;DHT22;31262;51.978;5.924;2022-10-16T08:49:11;16.20;80.20
45537;DHT22;31262;51.978;5.924;2022-10-16T08:51:39;16.20;80.00
45537;DHT22;31262;51.978;5.924;2022-10-16T08:54:06;16.30;79.80
45537;DHT22;31262;51.978;5.924;2022-10-16T08:56:34;16.30;79.40
45537;DHT22;31262;51.978;5.924;2022-10-16T08:59:00;16.40;79.50
45537;DHT22;31262;51.978;5.924;2022-10-16T09:01:32;16.50;79.30
45537;DHT22;31262;51.978;5.924;2022-10-16T09:17:06;17.60;76.10
45537;DHT22;31262;51.978;5.924;2022-10-16T09:19:38;17.70;76.00
45537;DHT22;31262;51.978;5.924;2022-10-16T09:22:15;17.90;76.00
45537;DHT22;31262;51.978;5.924;2022-10-16T09:24:41;18.00;73.10
45537;DHT22;31262;51.978;5.924;2022-10-16T09:27:10;18.10;72.40
45537;DHT22;31262;51.978;5.924;2022-10-16T09:29:36;18.20;72.40
45537;DHT22;31262;51.978;5.924;2022-10-16T09:32:35;18.20;72.30
45537;DHT22;31262;51.978;5.924;2022-10-16T09:34:54;18.30;72.30
45537;DHT22;31262;51.978;5.924;2022-10-16T09:37:22;18.50;72.60
45537;DHT22;31262;51.978;5.924;2022-10-16T09:39:49;18.70;71.90
45537;DHT22;31262;51.978;5.924;2022-10-16T09:42:18;18.90;71.80
45537;DHT22;31262;51.978;5.924;2022-10-16T09:44:49;19.10;70.80
45537;DHT22;31262;51.978;5.924;2022-10-16T09:47:19;19.20;69.60
45537;DHT22;31262;51.978;5.924;2022-10-16T09:49:56;19.30;68.90
45537;DHT22;31262;51.978;5.924;2022-10-16T09:52:23;19.40;68.70
45537;DHT22;31262;51.978;5.924;2022-10-16T09:54:49;19.50;69.40
45537;DHT22;31262;51.978;5.924;2022-10-16T09:57:15;19.70;69.10
45537;DHT22;31262;51.978;5.924;2022-10-16T09:59:47;19.80;68.90
45537;DHT22;31262;51.978;5.924;2022-10-16T10:02:14;20.00;68.90
45537;DHT22;31262;51.978;5.924;2022-10-16T10:04:41;20.20;67.30
45537;DHT22;31262;51.978;5.924;2022-10-16T10:07:07;20.30;66.40
45537;DHT22;31262;51.978;5.924;2022-10-16T10:09:43;20.30;65.40
45537;DHT22;31262;51.978;5.924;2022-10-16T10:12:19;20.40;66.00
45537;DHT22;31262;51.978;5.924;2022-10-16T10:14:52;20.60;66.50
45537;DHT22;31262;51.978;5.924;2022-10-16T10:17:19;21.00;66.40
45537;DHT22;31262;51.978;5.924;2022-10-16T10:19:47;21.50;64.90
45537;DHT22;31262;51.978;5.924;2022-10-16T10:27:32;22.60;62.90
45537;DHT22;31262;51.978;5.924;2022-10-16T10:30:04;22.90;60.10
45537;DHT22;31262;51.978;5.924;2022-10-16T10:32:37;23.10;59.20
45537;DHT22;31262;51.978;5.924;2022-10-16T10:35:07;23.20;59.50
45537;DHT22;31262;51.978;5.924;2022-10-16T10:37:50;23.50;59.40
45537;DHT22;31262;51.978;5.924;2022-10-16T10:45:47;24.50;55.20
45537;DHT22;31262;51.978;5.924;2022-10-16T10:48:17;24.40;56.60
45537;DHT22;31262;51.978;5.924;2022-10-16T10:55:53;24.40;55.60
45537;DHT22;31262;51.978;5.924;2022-10-16T10:58:35;24.40;54.10
45537;DHT22;31262;51.978;5.924;2022-10-16T11:06:22;23.90;51.90
45537;DHT22;31262;51.978;5.924;2022-10-16T11:08:50;23.70;52.50
45537;DHT22;31262;51.978;5.924;2022-10-16T11:11:23;23.60;53.20
45537;DHT22;31262;51.978;5.924;2022-10-16T11:14:09;23.70;54.00
45537;DHT22;31262;51.978;5.924;2022-10-16T11:16:39;23.80;54.20
45537;DHT22;31262;51.978;5.924;2022-10-16T11:19:12;24.10;53.50
45537;DHT22;31262;51.978;5.924;2022-10-16T11:21:43;24.30;52.30
45537;DHT22;31262;51.978;5.924;2022-10-16T11:24:14;24.40;50.90
45537;DHT22;31262;51.978;5.924;2022-10-16T11:26:42;24.40;50.90
45537;DHT22;31262;51.978;5.924;2022-10-16T11:29:11;24.50;51.60
45537;DHT22;31262;51.978;5.924;2022-10-16T11:31:39;24.60;51.30
45537;DHT22;31262;51.978;5.924;2022-10-16T11:36:45;24.40;49.60
45537;DHT22;31262;51.978;5.924;2022-10-16T11:39:31;24.30;50.90
45537;DHT22;31262;51.978;5.924;2022-10-16T11:49:44;24.40;50.50
45537;DHT22;31262;51.978;5.924;2022-10-16T11:54:53;24.40;49.70
45537;DHT22;31262;51.978;5.924;2022-10-16T11:57:26;24.10;48.90
45537;DHT22;31262;51.978;5.924;2022-10-16T11:59:55;24.10;50.20
45537;DHT22;31262;51.978;5.924;2022-10-16T12:05:11;24.10;47.40
45537;DHT22;31262;51.978;5.924;2022-10-16T12:07:41;23.80;47.80
45537;DHT22;31262;51.978;5.924;2022-10-16T12:10:26;23.80;49.10
45537;DHT22;31262;51.978;5.924;2022-10-16T12:12:53;23.90;49.80
45537;DHT22;31262;51.978;5.924;2022-10-16T12:17:47;24.60;49.90
45537;DHT22;31262;51.978;5.924;2022-10-16T12:30:22;25.50;47.60
45537;DHT22;31262;51.978;5.924;2022-10-16T12:33:02;25.40;47.00
45537;DHT22;31262;51.978;5.924;2022-10-16T12:35:29;25.30;46.20
45537;DHT22;31262;51.978;5.924;2022-10-16T12:38:04;25.10;46.50
45537;DHT22;31262;51.978;5.924;2022-10-16T12:40:31;25.10;47.10
45537;DHT22;31262;51.978;5.924;2022-10-16T12:42:57;25.20;48.00
45537;DHT22;31262;51.978;5.924;2022-10-16T12:47:50;25.60;46.90
45537;DHT22;31262;51.978;5.924;2022-10-16T12:50:27;25.80;46.30
45537;DHT22;31262;51.978;5.924;2022-10-16T12:52:53;26.00;46.20
45537;DHT22;31262;51.978;5.924;2022-10-16T12:55:19;26.00;46.10
45537;DHT22;31262;51.978;5.924;2022-10-16T13:00:31;26.10;46.30
45537;DHT22;31262;51.978;5.924;2022-10-16T13:05:30;26.00;46.40
45537;DHT22;31262;51.978;5.924;2022-10-16T13:08:10;25.90;46.70
45537;DHT22;31262;51.978;5.924;2022-10-16T13:15:58;25.60;46.70
45537;DHT22;31262;51.978;5.924;2022-10-16T13:21:05;25.20;47.70
45537;DHT22;31262;51.978;5.924;2022-10-16T13:26:07;25.00;48.10
45537;DHT22;31262;51.978;5.924;2022-10-16T13:28:37;24.80;48.40
45537;DHT22;31262;51.978;5.924;2022-10-16T13:31:03;24.80;48.80
45537;DHT22;31262;51.978;5.924;2022-10-16T13:33:33;24.80;49.10
45537;DHT22;31262;51.978;5.924;2022-10-16T13:36:00;24.70;49.20
45537;DHT22;31262;51.978;5.924;2022-10-16T13:38:27;24.60;49.30
45537;DHT22;31262;51.978;5.924;2022-10-16T13:40:54;24.50;49.30
45537;DHT22;31262;51.978;5.924;2022-10-16T13:43:22;24.40;49.50
45537;DHT22;31262;51.978;5.924;2022-10-16T13:45:55;24.30;49.30
45537;DHT22;31262;51.978;5.924;2022-10-16T13:48:21;24.10;48.90
45537;DHT22;31262;51.978;5.924;2022-10-16T13:50:57;23.80;48.70
45537;DHT22;31262;51.978;5.924;2022-10-16T13:53:22;23.60;48.80
45537;DHT22;31262;51.978;5.924;2022-10-16T13:55:48;23.20;48.70
45537;DHT22;31262;51.978;5.924;2022-10-16T13:58:14;23.00;48.90
45537;DHT22;31262;51.978;5.924;2022-10-16T14:00:40;22.70;49.30
45537;DHT22;31262;51.978;5.924;2022-10-16T14:03:13;22.50;49.60
45537;DHT22;31262;51.978;5.924;2022-10-16T14:05:53;22.40;49.70
45537;DHT22;31262;51.978;5.924;2022-10-16T14:08:19;22.20;50.00
45537;DHT22;31262;51.978;5.924;2022-10-16T14:10:48;22.10;50.50
45537;DHT22;31262;51.978;5.924;2022-10-16T14:13:16;22.00;51.00
45537;DHT22;31262;51.978;5.924;2022-10-16T14:15:45;22.00;51.00
45537;DHT22;31262;51.978;5.924;2022-10-16T14:18:14;21.90;51.20
45537;DHT22;31262;51.978;5.924;2022-10-16T14:20:43;21.80;51.60
45537;DHT22;31262;51.978;5.924;2022-10-16T14:23:22;21.70;51.80
45537;DHT22;31262;51.978;5.924;2022-10-16T14:25:48;21.70;52.30
45537;DHT22;31262;51.978;5.924;2022-10-16T14:28:18;21.70;52.50
45537;DHT22;31262;51.978;5.924;2022-10-16T14:30:57;21.80;52.70
45537;DHT22;31262;51.978;5.924;2022-10-16T14:33:32;21.80;52.80
45537;DHT22;31262;51.978;5.924;2022-10-16T14:38:30;21.80;54.00
45537;DHT22;31262;51.978;5.924;2022-10-16T14:40:57;21.90;53.80
45537;DHT22;31262;51.978;5.924;2022-10-16T14:43:24;21.90;54.10
45537;DHT22;31262;51.978;5.924;2022-10-16T14:45:52;21.90;54.40
45537;DHT22;31262;51.978;5.924;2022-10-16T14:48:18;21.90;54.10
45537;DHT22;31262;51.978;5.924;2022-10-16T14:50:44;21.90;54.00
45537;DHT22;31262;51.978;5.924;2022-10-16T14:53:11;21.80;54.30
45537;DHT22;31262;51.978;5.924;2022-10-16T14:55:37;21.80;54.50
45537;DHT22;31262;51.978;5.924;2022-10-16T14:58:03;21.70;54.10
45537;DHT22;31262;51.978;5.924;2022-10-16T15:00:29;21.70;54.50
45537;DHT22;31262;51.978;5.924;2022-10-16T15:02:54;21.70;54.80
45537;DHT22;31262;51.978;5.924;2022-10-16T15:05:23;21.70;55.10
45537;DHT22;31262;51.978;5.924;2022-10-16T15:07:50;21.60;55.20
45537;DHT22;31262;51.978;5.924;2022-10-16T15:10:16;21.70;55.50
45537;DHT22;31262;51.978;5.924;2022-10-16T15:12:42;21.70;55.70
45537;DHT22;31262;51.978;5.924;2022-10-16T15:17:39;21.70;55.70
45537;DHT22;31262;51.978;5.924;2022-10-16T15:20:04;21.70;55.70
45537;DHT22;31262;51.978;5.924;2022-10-16T15:22:30;21.70;55.60
45537;DHT22;31262;51.978;5.924;2022-10-16T15:24:56;21.60;55.40
45537;DHT22;31262;51.978;5.924;2022-10-16T15:27:21;21.50;55.50
45537;DHT22;31262;51.978;5.924;2022-10-16T15:29:47;21.40;55.60
45537;DHT22;31262;51.978;5.924;2022-10-16T15:32:12;21.40;55.60
45537;DHT22;31262;51.978;5.924;2022-10-16T15:34:38;21.30;55.70
45537;DHT22;31262;51.978;5.924;2022-10-16T15:37:03;21.30;55.80
45537;DHT22;31262;51.978;5.924;2022-10-16T15:39:29;21.20;56.00
45537;DHT22;31262;51.978;5.924;2022-10-16T15:41:54;21.20;56.20
45537;DHT22;31262;51.978;5.924;2022-10-16T15:44:20;21.20;56.30
45537;DHT22;31262;51.978;5.924;2022-10-16T15:46:48;21.20;56.60
45537;DHT22;31262;51.978;5.924;2022-10-16T15:49:13;21.10;56.80
45537;DHT22;31262;51.978;5.924;2022-10-16T15:51:39;21.10;57.20
45537;DHT22;31262;51.978;5.924;2022-10-16T15:54:05;21.10;57.50
45537;DHT22;31262;51.978;5.924;2022-10-16T15:56:31;21.00;57.80
45537;DHT22;31262;51.978;5.924;2022-10-16T15:58:58;20.90;58.00
45537;DHT22;31262;51.978;5.924;2022-10-16T16:01:24;20.90;58.20
45537;DHT22;31262;51.978;5.924;2022-10-16T16:03:52;20.80;58.20
45537;DHT22;31262;51.978;5.924;2022-10-16T16:06:18;20.80;58.50
45537;DHT22;31262;51.978;5.924;2022-10-16T16:08:43;20.70;58.50
45537;DHT22;31262;51.978;5.924;2022-10-16T16:11:10;20.70;58.60
45537;DHT22;31262;51.978;5.924;2022-10-16T16:13:35;20.60;58.80
45537;DHT22;31262;51.978;5.924;2022-10-16T16:16:10;20.60;58.80
45537;DHT22;31262;51.978;5.924;2022-10-16T16:18:35;20.50;58.80
45537;DHT22;31262;51.978;5.924;2022-10-16T16:21:01;20.50;59.00
45537;DHT22;31262;51.978;5.924;2022-10-16T16:23:27;20.50;59.20
45537;DHT22;31262;51.978;5.924;2022-10-16T16:26:02;20.40;59.40
45537;DHT22;31262;51.978;5.924;2022-10-16T16:28:27;20.40;59.60
45537;DHT22;31262;51.978;5.924;2022-10-16T16:30:53;20.30;59.90
45537;DHT22;31262;51.978;5.924;2022-10-16T16:33:18;20.30;60.30
45537;DHT22;31262;51.978;5.924;2022-10-16T16:35:44;20.20;60.60
45537;DHT22;31262;51.978;5.924;2022-10-16T16:38:09;20.20;60.80
45537;DHT22;31262;51.978;5.924;2022-10-16T16:40:35;20.20;61.00
45537;DHT22;31262;51.978;5.924;2022-10-16T16:43:00;20.30;61.20
45537;DHT22;31262;51.978;5.924;2022-10-16T16:45:26;20.30;61.40
45537;DHT22;31262;51.978;5.924;2022-10-16T16:47:51;20.30;61.70
45537;DHT22;31262;51.978;5.924;2022-10-16T16:50:17;20.30;61.90
45537;DHT22;31262;51.978;5.924;2022-10-16T16:52:42;20.30;62.10
45537;DHT22;31262;51.978;5.924;2022-10-16T16:55:08;20.30;62.30
45537;DHT22;31262;51.978;5.924;2022-10-16T16:57:33;20.30;62.60
45537;DHT22;31262;51.978;5.924;2022-10-16T16:59:59;20.30;62.50
45537;DHT22;31262;51.978;5.924;2022-10-16T17:02:24;20.30;62.60
45537;DHT22;31262;51.978;5.924;2022-10-16T17:04:50;20.40;62.70
45537;DHT22;31262;51.978;5.924;2022-10-16T17:07:16;20.30;62.70
45537;DHT22;31262;51.978;5.924;2022-10-16T17:09:41;20.30;62.60
45537;DHT22;31262;51.978;5.924;2022-10-16T17:12:07;20.30;62.60
45537;DHT22;31262;51.978;5.924;2022-10-16T17:14:33;20.20;62.60
45537;DHT22;31262;51.978;5.924;2022-10-16T17:16:58;20.10;62.50
45537;DHT22;31262;51.978;5.924;2022-10-16T17:19:24;20.10;62.70